Horningford, Pennsylvania
Current Conditions -  °F | °C
As of 1:53 PM on Tuesday 21 Oct 2014 (Local Time) from KUNV Reporting Station
Moderate Rain Moderate Rain  
Wind Chill: 54°   Ceiling: 4400
Heat Index: 54°   Visibility: 6mi
Dew Point: 50°   Wind: 0mph
Humidity: 88%   Direction: NA
Pressure: 29.85"   Gusts: NA
Location:  40.6073°N, 77.5812°W
Report Text: KUNV 211753Z 00000KT 6SM RA SCT027 BKN044 OVC050 12/10 A2985
Loading
Personal Weather Stations






























Interactive Weather Map
Tropical Storm Tracking
New forecast layout! Learn more

10-Day Weather Forecast

Advertisements
Track Severe Weather on mobile